sensor_id;sensor_type;location;lat;lon;timestamp;P1;durP1;ratioP1;P2;durP2;ratioP2
1460;SDS011;724;49.910;12.530;2024-03-02T00:00:52;16.23;;;15.43;;
1460;SDS011;724;49.910;12.530;2024-03-02T00:03:19;16.02;;;15.23;;
1460;SDS011;724;49.910;12.530;2024-03-02T00:05:50;16.30;;;15.50;;
1460;SDS011;724;49.910;12.530;2024-03-02T00:08:20;16.45;;;15.65;;
1460;SDS011;724;49.910;12.530;2024-03-02T00:10:51;15.90;;;15.10;;
1460;SDS011;724;49.910;12.530;2024-03-02T00:13:20;16.30;;;15.50;;
1460;SDS011;724;49.910;12.530;2024-03-02T00:15:49;16.10;;;15.30;;
1460;SDS011;724;49.910;12.530;2024-03-02T00:18:18;16.10;;;15.30;;
1460;SDS011;724;49.910;12.530;2024-03-02T00:20:46;16.10;;;15.30;;
1460;SDS011;724;49.910;12.530;2024-03-02T00:23:15;16.40;;;15.60;;
1460;SDS011;724;49.910;12.530;2024-03-02T00:25:43;16.20;;;15.40;;
1460;SDS011;724;49.910;12.530;2024-03-02T00:28:13;16.17;;;15.38;;
1460;SDS011;724;49.910;12.530;2024-03-02T00:30:50;16.45;;;15.65;;
1460;SDS011;724;49.910;12.530;2024-03-02T00:33:20;15.77;;;14.98;;
1460;SDS011;724;49.910;12.530;2024-03-02T00:35:47;16.30;;;15.50;;
1460;SDS011;724;49.910;12.530;2024-03-02T00:38:16;16.30;;;15.50;;
1460;SDS011;724;49.910;12.530;2024-03-02T00:40:43;16.40;;;15.60;;
1460;SDS011;724;49.910;12.530;2024-03-02T00:43:21;16.40;;;15.60;;
1460;SDS011;724;49.910;12.530;2024-03-02T00:46:07;16.42;;;15.63;;
1460;SDS011;724;49.910;12.530;2024-03-02T00:48:34;16.70;;;15.90;;
1460;SDS011;724;49.910;12.530;2024-03-02T00:51:02;16.50;;;15.70;;
1460;SDS011;724;49.910;12.530;2024-03-02T00:53:30;16.65;;;15.85;;
1460;SDS011;724;49.910;12.530;2024-03-02T00:55:58;16.30;;;15.50;;
1460;SDS011;724;49.910;12.530;2024-03-02T00:58:25;16.70;;;15.90;;
1460;SDS011;724;49.910;12.530;2024-03-02T01:00:52;16.60;;;15.80;;
1460;SDS011;724;49.910;12.530;2024-03-02T01:03:19;16.42;;;15.63;;
1460;SDS011;724;49.910;12.530;2024-03-02T01:05:45;16.13;;;15.32;;
1460;SDS011;724;49.910;12.530;2024-03-02T01:08:12;16.05;;;15.25;;
1460;SDS011;724;49.910;12.530;2024-03-02T01:10:41;15.95;;;15.15;;
1460;SDS011;724;49.910;12.530;2024-03-02T01:13:08;16.30;;;15.50;;
1460;SDS011;724;49.910;12.530;2024-03-02T01:15:35;15.90;;;15.10;;
1460;SDS011;724;49.910;12.530;2024-03-02T01:18:01;16.20;;;15.40;;
1460;SDS011;724;49.910;12.530;2024-03-02T01:20:28;16.50;;;15.70;;
1460;SDS011;724;49.910;12.530;2024-03-02T01:22:55;16.20;;;15.40;;
1460;SDS011;724;49.910;12.530;2024-03-02T01:25:22;15.50;;;14.70;;
1460;SDS011;724;49.910;12.530;2024-03-02T01:27:50;15.60;;;14.80;;
1460;SDS011;724;49.910;12.530;2024-03-02T01:30:16;15.85;;;15.05;;
1460;SDS011;724;49.910;12.530;2024-03-02T01:32:43;15.77;;;14.98;;
1460;SDS011;724;49.910;12.530;2024-03-02T01:35:10;15.40;;;14.60;;
1460;SDS011;724;49.910;12.530;2024-03-02T01:37:37;15.70;;;14.90;;
1460;SDS011;724;49.910;12.530;2024-03-02T01:40:04;15.90;;;15.10;;
1460;SDS011;724;49.910;12.530;2024-03-02T01:42:34;15.80;;;15.00;;
1460;SDS011;724;49.910;12.530;2024-03-02T01:45:03;16.10;;;15.30;;
1460;SDS011;724;49.910;12.530;2024-03-02T01:47:31;16.58;;;15.77;;
1460;SDS011;724;49.910;12.530;2024-03-02T01:49:58;16.23;;;15.43;;
1460;SDS011;724;49.910;12.530;2024-03-02T01:52:26;15.80;;;15.00;;
1460;SDS011;724;49.910;12.530;2024-03-02T01:54:54;15.20;;;14.40;;
1460;SDS011;724;49.910;12.530;2024-03-02T01:57:21;16.30;;;15.50;;
1460;SDS011;724;49.910;12.530;2024-03-02T01:59:47;16.20;;;15.40;;
1460;SDS011;724;49.910;12.530;2024-03-02T02:02:17;15.88;;;15.07;;
1460;SDS011;724;49.910;12.530;2024-03-02T02:04:43;15.68;;;14.88;;
1460;SDS011;724;49.910;12.530;2024-03-02T02:07:10;15.80;;;15.00;;
1460;SDS011;724;49.910;12.530;2024-03-02T02:09:39;16.20;;;15.40;;
1460;SDS011;724;49.910;12.530;2024-03-02T02:12:06;15.80;;;15.00;;
1460;SDS011;724;49.910;12.530;2024-03-02T02:14:33;15.50;;;14.70;;
1460;SDS011;724;49.910;12.530;2024-03-02T02:16:59;16.08;;;15.27;;
1460;SDS011;724;49.910;12.530;2024-03-02T02:19:28;15.90;;;15.10;;
1460;SDS011;724;49.910;12.530;2024-03-02T02:21:56;15.95;;;15.15;;
1460;SDS011;724;49.910;12.530;2024-03-02T02:24:22;15.75;;;14.95;;
1460;SDS011;724;49.910;12.530;2024-03-02T02:26:49;15.50;;;14.70;;
1460;SDS011;724;49.910;12.530;2024-03-02T02:29:16;15.70;;;14.90;;
1460;SDS011;724;49.910;12.530;2024-03-02T02:31:42;15.60;;;14.80;;
1460;SDS011;724;49.910;12.530;2024-03-02T02:34:09;15.70;;;14.90;;
1460;SDS011;724;49.910;12.530;2024-03-02T02:36:36;15.80;;;15.00;;
1460;SDS011;724;49.910;12.530;2024-03-02T02:39:06;15.90;;;15.10;;
1460;SDS011;724;49.910;12.530;2024-03-02T02:41:37;16.08;;;15.27;;
1460;SDS011;724;49.910;12.530;2024-03-02T02:44:04;15.85;;;15.05;;
1460;SDS011;724;49.910;12.530;2024-03-02T02:46:30;16.00;;;15.20;;
1460;SDS011;724;49.910;12.530;2024-03-02T02:48:57;16.00;;;15.20;;
1460;SDS011;724;49.910;12.530;2024-03-02T02:51:23;15.80;;;15.00;;
1460;SDS011;724;49.910;12.530;2024-03-02T02:53:50;15.50;;;14.70;;
1460;SDS011;724;49.910;12.530;2024-03-02T02:56:18;15.50;;;14.70;;
1460;SDS011;724;49.910;12.530;2024-03-02T02:58:45;15.30;;;14.50;;
1460;SDS011;724;49.910;12.530;2024-03-02T03:01:11;15.90;;;15.10;;
1460;SDS011;724;49.910;12.530;2024-03-02T03:03:38;15.63;;;14.82;;
1460;SDS011;724;49.910;12.530;2024-03-02T03:06:05;15.70;;;14.90;;
1460;SDS011;724;49.910;12.530;2024-03-02T03:08:32;15.88;;;15.07;;
1460;SDS011;724;49.910;12.530;2024-03-02T03:10:59;15.60;;;14.80;;
1460;SDS011;724;49.910;12.530;2024-03-02T03:13:27;16.20;;;15.40;;
1460;SDS011;724;49.910;12.530;2024-03-02T03:15:54;15.80;;;15.00;;
1460;SDS011;724;49.910;12.530;2024-03-02T03:18:20;15.90;;;15.10;;
1460;SDS011;724;49.910;12.530;2024-03-02T03:20:47;16.08;;;15.27;;
1460;SDS011;724;49.910;12.530;2024-03-02T03:23:15;15.80;;;15.00;;
1460;SDS011;724;49.910;12.530;2024-03-02T03:25:42;16.35;;;15.55;;
1460;SDS011;724;49.910;12.530;2024-03-02T03:28:08;16.10;;;15.30;;
1460;SDS011;724;49.910;12.530;2024-03-02T03:30:37;15.82;;;15.02;;
1460;SDS011;724;49.910;12.530;2024-03-02T03:33:04;16.20;;;15.40;;
1460;SDS011;724;49.910;12.530;2024-03-02T03:35:32;15.95;;;15.15;;
1460;SDS011;724;49.910;12.530;2024-03-02T03:37:58;16.00;;;15.20;;
1460;SDS011;724;49.910;12.530;2024-03-02T03:40:25;16.23;;;15.43;;
1460;SDS011;724;49.910;12.530;2024-03-02T03:42:52;15.90;;;15.10;;
1460;SDS011;724;49.910;12.530;2024-03-02T03:45:21;15.80;;;15.00;;
1460;SDS011;724;49.910;12.530;2024-03-02T03:47:49;15.48;;;14.68;;
1460;SDS011;724;49.910;12.530;2024-03-02T03:50:15;15.98;;;15.18;;
1460;SDS011;724;49.910;12.530;2024-03-02T03:52:42;15.80;;;15.00;;
1460;SDS011;724;49.910;12.530;2024-03-02T03:55:09;15.73;;;14.93;;
1460;SDS011;724;49.910;12.530;2024-03-02T03:57:36;15.98;;;15.18;;
1460;SDS011;724;49.910;12.530;2024-03-02T04:00:02;15.70;;;14.90;;
1460;SDS011;724;49.910;12.530;2024-03-02T04:02:29;15.40;;;14.60;;
1460;SDS011;724;49.910;12.530;2024-03-02T04:04:57;15.30;;;14.50;;
1460;SDS011;724;49.910;12.530;2024-03-02T04:07:24;15.30;;;14.50;;
1460;SDS011;724;49.910;12.530;2024-03-02T04:09:51;15.30;;;14.50;;
1460;SDS011;724;49.910;12.530;2024-03-02T04:12:17;15.50;;;14.70;;
1460;SDS011;724;49.910;12.530;2024-03-02T04:14:44;15.10;;;14.30;;
1460;SDS011;724;49.910;12.530;2024-03-02T04:17:11;16.00;;;15.20;;
1460;SDS011;724;49.910;12.530;2024-03-02T04:19:38;15.52;;;14.73;;
1460;SDS011;724;49.910;12.530;2024-03-02T04:22:06;16.00;;;15.20;;
1460;SDS011;724;49.910;12.530;2024-03-02T04:24:33;15.60;;;14.80;;
1460;SDS011;724;49.910;12.530;2024-03-02T04:26:59;15.60;;;14.80;;
1460;SDS011;724;49.910;12.530;2024-03-02T04:29:27;15.80;;;15.00;;
1460;SDS011;724;49.910;12.530;2024-03-02T04:31:54;15.90;;;15.10;;
1460;SDS011;724;49.910;12.530;2024-03-02T04:34:20;15.40;;;14.60;;
1460;SDS011;724;49.910;12.530;2024-03-02T04:36:47;15.80;;;15.00;;
1460;SDS011;724;49.910;12.530;2024-03-02T04:39:16;15.40;;;14.60;;
1460;SDS011;724;49.910;12.530;2024-03-02T04:41:43;15.40;;;14.60;;
1460;SDS011;724;49.910;12.530;2024-03-02T04:44:09;15.75;;;14.95;;
1460;SDS011;724;49.910;12.530;2024-03-02T04:46:36;15.60;;;14.80;;
1460;SDS011;724;49.910;12.530;2024-03-02T04:49:03;15.07;;;14.27;;
1460;SDS011;724;49.910;12.530;2024-03-02T04:51:29;15.00;;;14.20;;
1460;SDS011;724;49.910;12.530;2024-03-02T04:53:56;15.82;;;15.02;;
1460;SDS011;724;49.910;12.530;2024-03-02T04:56:24;15.00;;;14.20;;
1460;SDS011;724;49.910;12.530;2024-03-02T04:59:09;14.50;;;13.80;;
1460;SDS011;724;49.910;12.530;2024-03-02T05:01:36;15.10;;;14.30;;
1460;SDS011;724;49.910;12.530;2024-03-02T05:04:02;14.60;;;13.90;;
1460;SDS011;724;49.910;12.530;2024-03-02T05:06:29;14.70;;;13.95;;
1460;SDS011;724;49.910;12.530;2024-03-02T05:08:56;14.10;;;13.40;;
1460;SDS011;724;49.910;12.530;2024-03-02T05:11:24;14.20;;;13.50;;
1460;SDS011;724;49.910;12.530;2024-03-02T05:14:08;14.20;;;13.50;;
1460;SDS011;724;49.910;12.530;2024-03-02T05:16:35;14.10;;;13.40;;
1460;SDS011;724;49.910;12.530;2024-03-02T05:19:03;13.90;;;13.20;;
1460;SDS011;724;49.910;12.530;2024-03-02T05:21:31;13.90;;;13.20;;
1460;SDS011;724;49.910;12.530;2024-03-02T05:23:58;13.35;;;12.65;;
1460;SDS011;724;49.910;12.530;2024-03-02T05:26:26;13.20;;;12.50;;
1460;SDS011;724;49.910;12.530;2024-03-02T05:28:53;13.25;;;12.55;;
1460;SDS011;724;49.910;12.530;2024-03-02T05:31:20;13.55;;;12.85;;
1460;SDS011;724;49.910;12.530;2024-03-02T05:33:46;13.93;;;13.23;;
1460;SDS011;724;49.910;12.530;2024-03-02T05:36:13;13.80;;;13.10;;
1460;SDS011;724;49.910;12.530;2024-03-02T05:38:40;13.50;;;12.80;;
1460;SDS011;724;49.910;12.530;2024-03-02T05:41:07;14.05;;;13.35;;
1460;SDS011;724;49.910;12.530;2024-03-02T05:43:35;13.40;;;12.70;;
1460;SDS011;724;49.910;12.530;2024-03-02T05:46:02;13.25;;;12.55;;
1460;SDS011;724;49.910;12.530;2024-03-02T05:48:29;13.38;;;12.68;;
1460;SDS011;724;49.910;12.530;2024-03-02T05:50:56;13.43;;;12.73;;
1460;SDS011;724;49.910;12.530;2024-03-02T05:53:22;13.23;;;12.52;;
1460;SDS011;724;49.910;12.530;2024-03-02T05:55:49;13.25;;;12.55;;
1460;SDS011;724;49.910;12.530;2024-03-02T05:58:18;14.05;;;13.35;;
1460;SDS011;724;49.910;12.530;2024-03-02T06:00:57;14.30;;;13.60;;
1460;SDS011;724;49.910;12.530;2024-03-02T06:03:24;14.30;;;13.60;;
1460;SDS011;724;49.910;12.530;2024-03-02T06:05:51;14.60;;;13.90;;
1460;SDS011;724;49.910;12.530;2024-03-02T06:08:17;14.10;;;13.40;;
1460;SDS011;724;49.910;12.530;2024-03-02T06:10:44;15.00;;;14.20;;
1460;SDS011;724;49.910;12.530;2024-03-02T06:13:11;15.07;;;14.27;;
1460;SDS011;724;49.910;12.530;2024-03-02T06:15:38;15.00;;;14.20;;
1460;SDS011;724;49.910;12.530;2024-03-02T06:18:06;14.90;;;14.10;;
1460;SDS011;724;49.910;12.530;2024-03-02T06:20:33;16.20;;;15.40;;
1460;SDS011;724;49.910;12.530;2024-03-02T06:23:00;15.43;;;14.63;;
1460;SDS011;724;49.910;12.530;2024-03-02T06:25:27;16.20;;;15.40;;
1460;SDS011;724;49.910;12.530;2024-03-02T06:27:53;16.00;;;15.20;;
1460;SDS011;724;49.910;12.530;2024-03-02T06:30:20;16.10;;;15.30;;
1460;SDS011;724;49.910;12.530;2024-03-02T06:32:47;15.60;;;14.80;;
1460;SDS011;724;49.910;12.530;2024-03-02T06:35:15;15.70;;;14.90;;
1460;SDS011;724;49.910;12.530;2024-03-02T06:37:41;15.80;;;15.00;;
1460;SDS011;724;49.910;12.530;2024-03-02T06:40:08;15.90;;;15.10;;
1460;SDS011;724;49.910;12.530;2024-03-02T06:42:35;15.48;;;14.68;;
1460;SDS011;724;49.910;12.530;2024-03-02T06:45:02;15.30;;;14.50;;
1460;SDS011;724;49.910;12.530;2024-03-02T06:47:30;15.32;;;14.52;;
1460;SDS011;724;49.910;12.530;2024-03-02T06:49:56;14.90;;;14.10;;
1460;SDS011;724;49.910;12.530;2024-03-02T06:52:25;15.10;;;14.30;;
1460;SDS011;724;49.910;12.530;2024-03-02T06:54:51;15.20;;;14.40;;
1460;SDS011;724;49.910;12.530;2024-03-02T06:57:18;15.30;;;14.50;;
1460;SDS011;724;49.910;12.530;2024-03-02T06:59:45;15.60;;;14.80;;
1460;SDS011;724;49.910;12.530;2024-03-02T07:02:13;15.55;;;14.75;;
1460;SDS011;724;49.910;12.530;2024-03-02T07:04:40;15.50;;;14.70;;
1460;SDS011;724;49.910;12.530;2024-03-02T07:07:07;15.35;;;14.55;;
1460;SDS011;724;49.910;12.530;2024-03-02T07:09:35;15.50;;;14.70;;
1460;SDS011;724;49.910;12.530;2024-03-02T07:12:02;15.50;;;14.70;;
1460;SDS011;724;49.910;12.530;2024-03-02T07:14:28;15.90;;;15.10;;
1460;SDS011;724;49.910;12.530;2024-03-02T07:17:09;15.80;;;15.00;;
1460;SDS011;724;49.910;12.530;2024-03-02T07:19:37;16.10;;;15.30;;
1460;SDS011;724;49.910;12.530;2024-03-02T07:22:05;15.80;;;15.00;;
1460;SDS011;724;49.910;12.530;2024-03-02T07:24:40;15.88;;;15.07;;
1460;SDS011;724;49.910;12.530;2024-03-02T07:27:07;15.80;;;15.00;;
1460;SDS011;724;49.910;12.530;2024-03-02T07:29:34;16.00;;;15.20;;
1460;SDS011;724;49.910;12.530;2024-03-02T07:32:01;16.00;;;15.20;;
1460;SDS011;724;49.910;12.530;2024-03-02T07:34:28;16.10;;;15.30;;
1460;SDS011;724;49.910;12.530;2024-03-02T07:36:55;15.90;;;15.10;;
1460;SDS011;724;49.910;12.530;2024-03-02T07:39:25;16.20;;;15.40;;
1460;SDS011;724;49.910;12.530;2024-03-02T07:41:52;16.00;;;15.20;;
1460;SDS011;724;49.910;12.530;2024-03-02T07:44:19;16.20;;;15.40;;
1460;SDS011;724;49.910;12.530;2024-03-02T07:46:46;16.10;;;15.30;;
1460;SDS011;724;49.910;12.530;2024-03-02T07:49:14;15.93;;;15.13;;
1460;SDS011;724;49.910;12.530;2024-03-02T07:51:42;15.60;;;14.80;;
1460;SDS011;724;49.910;12.530;2024-03-02T07:54:08;15.70;;;14.90;;
1460;SDS011;724;49.910;12.530;2024-03-02T07:56:35;15.70;;;14.90;;
1460;SDS011;724;49.910;12.530;2024-03-02T07:59:03;15.38;;;14.57;;
1460;SDS011;724;49.910;12.530;2024-03-02T08:01:32;15.80;;;15.00;;
1460;SDS011;724;49.910;12.530;2024-03-02T08:03:59;16.10;;;15.30;;
1460;SDS011;724;49.910;12.530;2024-03-02T08:06:28;16.20;;;15.40;;
1460;SDS011;724;49.910;12.530;2024-03-02T08:08:56;16.20;;;15.40;;
1460;SDS011;724;49.910;12.530;2024-03-02T08:11:23;16.20;;;15.40;;
1460;SDS011;724;49.910;12.530;2024-03-02T08:13:55;16.10;;;15.30;;
1460;SDS011;724;49.910;12.530;2024-03-02T08:16:26;16.23;;;15.43;;
1460;SDS011;724;49.910;12.530;2024-03-02T08:18:53;16.50;;;15.70;;
1460;SDS011;724;49.910;12.530;2024-03-02T08:21:22;16.90;;;16.00;;
1460;SDS011;724;49.910;12.530;2024-03-02T08:23:49;16.70;;;15.90;;
1460;SDS011;724;49.910;12.530;2024-03-02T08:26:16;16.40;;;15.60;;
1460;SDS011;724;49.910;12.530;2024-03-02T08:28:56;16.67;;;15.88;;
1460;SDS011;724;49.910;12.530;2024-03-02T08:34:10;16.40;;;15.60;;
1460;SDS011;724;49.910;12.530;2024-03-02T08:36:37;16.90;;;16.00;;
1460;SDS011;724;49.910;12.530;2024-03-02T08:39:04;16.50;;;15.70;;
1460;SDS011;724;49.910;12.530;2024-03-02T08:41:32;16.30;;;15.50;;
1460;SDS011;724;49.910;12.530;2024-03-02T08:43:59;16.40;;;15.60;;
1460;SDS011;724;49.910;12.530;2024-03-02T08:46:26;16.40;;;15.60;;
1460;SDS011;724;49.910;12.530;2024-03-02T08:48:55;16.00;;;15.20;;
1460;SDS011;724;49.910;12.530;2024-03-02T08:51:21;16.08;;;15.27;;
1460;SDS011;724;49.910;12.530;2024-03-02T08:53:48;16.10;;;15.30;;
1460;SDS011;724;49.910;12.530;2024-03-02T08:56:15;16.10;;;15.30;;
1460;SDS011;724;49.910;12.530;2024-03-02T08:58:42;16.50;;;15.70;;
1460;SDS011;724;49.910;12.530;2024-03-02T09:01:09;16.10;;;15.30;;
1460;SDS011;724;49.910;12.530;2024-03-02T09:03:37;16.20;;;15.40;;
1460;SDS011;724;49.910;12.530;2024-03-02T09:06:05;16.00;;;15.20;;
1460;SDS011;724;49.910;12.530;2024-03-02T09:08:32;15.40;;;14.60;;
1460;SDS011;724;49.910;12.530;2024-03-02T09:11:01;15.20;;;14.40;;
1460;SDS011;724;49.910;12.530;2024-03-02T09:13:28;14.88;;;14.07;;
1460;SDS011;724;49.910;12.530;2024-03-02T09:15:55;15.10;;;14.30;;
1460;SDS011;724;49.910;12.530;2024-03-02T09:18:22;15.05;;;14.25;;
1460;SDS011;724;49.910;12.530;2024-03-02T09:20:48;15.30;;;14.50;;
1460;SDS011;724;49.910;12.530;2024-03-02T09:23:16;15.00;;;14.20;;
1460;SDS011;724;49.910;12.530;2024-03-02T09:25:43;14.50;;;13.80;;
1460;SDS011;724;49.910;12.530;2024-03-02T09:28:10;14.35;;;13.65;;
1460;SDS011;724;49.910;12.530;2024-03-02T09:30:37;14.20;;;13.50;;
1460;SDS011;724;49.910;12.530;2024-03-02T09:33:04;14.80;;;14.00;;
1460;SDS011;724;49.910;12.530;2024-03-02T09:35:31;14.50;;;13.80;;
1460;SDS011;724;49.910;12.530;2024-03-02T09:37:58;14.50;;;13.80;;
1460;SDS011;724;49.910;12.530;2024-03-02T09:40:26;13.80;;;13.10;;
1460;SDS011;724;49.910;12.530;2024-03-02T09:42:53;14.00;;;13.30;;
1460;SDS011;724;49.910;12.530;2024-03-02T09:45:22;13.90;;;13.20;;
1460;SDS011;724;49.910;12.530;2024-03-02T09:47:50;14.10;;;13.40;;
1460;SDS011;724;49.910;12.530;2024-03-02T09:50:17;14.40;;;13.70;;
1460;SDS011;724;49.910;12.530;2024-03-02T09:52:43;14.30;;;13.60;;
1460;SDS011;724;49.910;12.530;2024-03-02T09:55:13;14.30;;;13.60;;
1460;SDS011;724;49.910;12.530;2024-03-02T09:57:43;14.20;;;13.50;;
1460;SDS011;724;49.910;12.530;2024-03-02T10:00:11;14.48;;;13.77;;
1460;SDS011;724;49.910;12.530;2024-03-02T10:02:39;14.40;;;13.70;;
1460;SDS011;724;49.910;12.530;2024-03-02T10:05:07;14.23;;;13.52;;
1460;SDS011;724;49.910;12.530;2024-03-02T10:07:34;14.30;;;13.60;;
1460;SDS011;724;49.910;12.530;2024-03-02T10:10:12;14.98;;;14.18;;
1460;SDS011;724;49.910;12.530;2024-03-02T10:12:39;15.00;;;14.20;;
1460;SDS011;724;49.910;12.530;2024-03-02T10:15:07;15.20;;;14.40;;
1460;SDS011;724;49.910;12.530;2024-03-02T10:17:35;15.60;;;14.80;;
1460;SDS011;724;49.910;12.530;2024-03-02T10:22:50;15.40;;;14.60;;
1460;SDS011;724;49.910;12.530;2024-03-02T10:25:28;15.65;;;14.85;;
1460;SDS011;724;49.910;12.530;2024-03-02T10:27:56;15.80;;;15.00;;
1460;SDS011;724;49.910;12.530;2024-03-02T10:30:25;15.70;;;14.90;;
1460;SDS011;724;49.910;12.530;2024-03-02T10:32:53;15.88;;;15.07;;
1460;SDS011;724;49.910;12.530;2024-03-02T10:35:21;16.30;;;15.50;;
1460;SDS011;724;49.910;12.530;2024-03-02T10:37:48;16.00;;;15.20;;
1460;SDS011;724;49.910;12.530;2024-03-02T10:40:15;16.10;;;15.30;;
1460;SDS011;724;49.910;12.530;2024-03-02T10:42:42;16.20;;;15.40;;
1460;SDS011;724;49.910;12.530;2024-03-02T10:45:10;16.05;;;15.25;;
1460;SDS011;724;49.910;12.530;2024-03-02T10:47:41;16.10;;;15.30;;
1460;SDS011;724;49.910;12.530;2024-03-02T10:50:09;16.20;;;15.40;;
1460;SDS011;724;49.910;12.530;2024-03-02T10:52:36;15.90;;;15.10;;
1460;SDS011;724;49.910;12.530;2024-03-02T10:55:04;16.00;;;15.20;;
1460;SDS011;724;49.910;12.530;2024-03-02T10:57:33;15.85;;;15.05;;
1460;SDS011;724;49.910;12.530;2024-03-02T11:00:07;16.00;;;15.20;;
1460;SDS011;724;49.910;12.530;2024-03-02T11:02:41;15.70;;;14.90;;
1460;SDS011;724;49.910;12.530;2024-03-02T11:05:13;16.40;;;15.60;;
1460;SDS011;724;49.910;12.530;2024-03-02T11:07:50;16.60;;;15.80;;
1460;SDS011;724;49.910;12.530;2024-03-02T11:10:19;16.50;;;15.70;;
1460;SDS011;724;49.910;12.530;2024-03-02T11:12:48;16.30;;;15.50;;
1460;SDS011;724;49.910;12.530;2024-03-02T11:15:20;16.30;;;15.50;;
1460;SDS011;724;49.910;12.530;2024-03-02T11:17:51;16.40;;;15.60;;
1460;SDS011;724;49.910;12.530;2024-03-02T11:20:19;16.20;;;15.40;;
1460;SDS011;724;49.910;12.530;2024-03-02T11:22:46;16.15;;;15.35;;
1460;SDS011;724;49.910;12.530;2024-03-02T11:25:22;16.10;;;15.30;;
1460;SDS011;724;49.910;12.530;2024-03-02T11:27:59;15.90;;;15.10;;
1460;SDS011;724;49.910;12.530;2024-03-02T11:33:25;16.00;;;15.20;;
1460;SDS011;724;49.910;12.530;2024-03-02T11:35:56;16.60;;;15.80;;
1460;SDS011;724;49.910;12.530;2024-03-02T11:38:27;17.10;;;16.20;;
1460;SDS011;724;49.910;12.530;2024-03-02T11:40:56;16.90;;;16.00;;
1460;SDS011;724;49.910;12.530;2024-03-02T11:43:23;16.90;;;16.00;;
1460;SDS011;724;49.910;12.530;2024-03-02T11:45:56;16.70;;;15.90;;
1460;SDS011;724;49.910;12.530;2024-03-02T11:48:23;16.40;;;15.60;;
1460;SDS011;724;49.910;12.530;2024-03-02T11:50:52;16.20;;;15.40;;
1460;SDS011;724;49.910;12.530;2024-03-02T11:53:20;16.50;;;15.70;;
1460;SDS011;724;49.910;12.530;2024-03-02T11:55:49;16.60;;;15.80;;
1460;SDS011;724;49.910;12.530;2024-03-02T11:58:18;16.60;;;15.80;;
1460;SDS011;724;49.910;12.530;2024-03-02T12:00:50;16.30;;;15.50;;
1460;SDS011;724;49.910;12.530;2024-03-02T12:03:17;16.50;;;15.70;;
1460;SDS011;724;49.910;12.530;2024-03-02T12:05:55;16.70;;;15.90;;
1460;SDS011;724;49.910;12.530;2024-03-02T12:08:24;16.80;;;15.95;;
1460;SDS011;724;49.910;12.530;2024-03-02T12:10:57;16.70;;;15.90;;
1460;SDS011;724;49.910;12.530;2024-03-02T12:13:25;16.90;;;16.00;;
1460;SDS011;724;49.910;12.530;2024-03-02T12:15:53;17.10;;;16.20;;
1460;SDS011;724;49.910;12.530;2024-03-02T12:18:20;17.30;;;16.40;;
1460;SDS011;724;49.910;12.530;2024-03-02T12:20:48;16.90;;;16.00;;
1460;SDS011;724;49.910;12.530;2024-03-02T12:23:17;16.70;;;15.90;;
1460;SDS011;724;49.910;12.530;2024-03-02T12:25:44;17.00;;;16.10;;
1460;SDS011;724;49.910;12.530;2024-03-02T12:28:12;17.10;;;16.20;;
1460;SDS011;724;49.910;12.530;2024-03-02T12:30:38;17.00;;;16.10;;
1460;SDS011;724;49.910;12.530;2024-03-02T12:33:05;17.30;;;16.40;;
1460;SDS011;724;49.910;12.530;2024-03-02T12:35:32;16.70;;;15.90;;
1460;SDS011;724;49.910;12.530;2024-03-02T12:37:59;16.67;;;15.88;;
1460;SDS011;724;49.910;12.530;2024-03-02T12:40:27;16.90;;;16.00;;
1460;SDS011;724;49.910;12.530;2024-03-02T12:42:54;17.00;;;16.10;;
1460;SDS011;724;49.910;12.530;2024-03-02T12:45:20;17.00;;;16.10;;
1460;SDS011;724;49.910;12.530;2024-03-02T12:47:50;16.65;;;15.85;;
1460;SDS011;724;49.910;12.530;2024-03-02T12:50:17;16.50;;;15.70;;
1460;SDS011;724;49.910;12.530;2024-03-02T12:52:50;16.30;;;15.50;;
1460;SDS011;724;49.910;12.530;2024-03-02T12:55:17;16.33;;;15.52;;
1460;SDS011;724;49.910;12.530;2024-03-02T12:57:47;16.30;;;15.50;;
1460;SDS011;724;49.910;12.530;2024-03-02T13:00:17;16.00;;;15.20;;
1460;SDS011;724;49.910;12.530;2024-03-02T13:02:45;16.10;;;15.30;;
1460;SDS011;724;49.910;12.530;2024-03-02T13:05:12;16.02;;;15.23;;
1460;SDS011;724;49.910;12.530;2024-03-02T13:07:39;16.00;;;15.20;;
1460;SDS011;724;49.910;12.530;2024-03-02T13:10:07;16.00;;;15.20;;
1460;SDS011;724;49.910;12.530;2024-03-02T13:12:35;16.20;;;15.40;;
1460;SDS011;724;49.910;12.530;2024-03-02T13:15:04;16.33;;;15.52;;
1460;SDS011;724;49.910;12.530;2024-03-02T13:17:31;16.10;;;15.30;;
1460;SDS011;724;49.910;12.530;2024-03-02T13:20:01;16.20;;;15.40;;
1460;SDS011;724;49.910;12.530;2024-03-02T13:22:38;16.00;;;15.20;;
1460;SDS011;724;49.910;12.530;2024-03-02T13:25:05;16.10;;;15.30;;
1460;SDS011;724;49.910;12.530;2024-03-02T13:27:35;16.20;;;15.40;;
1460;SDS011;724;49.910;12.530;2024-03-02T13:30:04;16.40;;;15.60;;
1460;SDS011;724;49.910;12.530;2024-03-02T13:32:34;16.00;;;15.20;;
1460;SDS011;724;49.910;12.530;2024-03-02T13:35:00;15.90;;;15.10;;
1460;SDS011;724;49.910;12.530;2024-03-02T13:37:28;15.80;;;15.00;;
1460;SDS011;724;49.910;12.530;2024-03-02T13:39:54;16.10;;;15.30;;
1460;SDS011;724;49.910;12.530;2024-03-02T13:42:21;16.20;;;15.40;;
1460;SDS011;724;49.910;12.530;2024-03-02T13:44:48;16.20;;;15.40;;
1460;SDS011;724;49.910;12.530;2024-03-02T13:47:17;16.50;;;15.70;;
1460;SDS011;724;49.910;12.530;2024-03-02T13:49:44;16.20;;;15.40;;
1460;SDS011;724;49.910;12.530;2024-03-02T13:52:11;16.40;;;15.60;;
1460;SDS011;724;49.910;12.530;2024-03-02T13:54:42;16.50;;;15.70;;
1460;SDS011;724;49.910;12.530;2024-03-02T13:57:10;16.20;;;15.40;;
1460;SDS011;724;49.910;12.530;2024-03-02T13:59:48;16.33;;;15.52;;
1460;SDS011;724;49.910;12.530;2024-03-02T14:02:17;16.23;;;15.43;;
1460;SDS011;724;49.910;12.530;2024-03-02T14:04:44;16.30;;;15.50;;
1460;SDS011;724;49.910;12.530;2024-03-02T14:07:11;16.05;;;15.25;;
1460;SDS011;724;49.910;12.530;2024-03-02T14:09:38;15.85;;;15.05;;
1460;SDS011;724;49.910;12.530;2024-03-02T14:12:05;16.00;;;15.20;;
1460;SDS011;724;49.910;12.530;2024-03-02T14:14:32;15.90;;;15.10;;
1460;SDS011;724;49.910;12.530;2024-03-02T14:16:59;16.10;;;15.30;;
1460;SDS011;724;49.910;12.530;2024-03-02T14:19:30;16.40;;;15.60;;
1460;SDS011;724;49.910;12.530;2024-03-02T14:21:57;16.17;;;15.38;;
1460;SDS011;724;49.910;12.530;2024-03-02T14:24:24;16.00;;;15.20;;
1460;SDS011;724;49.910;12.530;2024-03-02T14:26:51;15.82;;;15.02;;
1460;SDS011;724;49.910;12.530;2024-03-02T14:29:18;15.70;;;14.90;;
1460;SDS011;724;49.910;12.530;2024-03-02T14:31:45;15.93;;;15.13;;
1460;SDS011;724;49.910;12.530;2024-03-02T14:34:13;15.30;;;14.50;;
1460;SDS011;724;49.910;12.530;2024-03-02T14:36:41;15.00;;;14.20;;
1460;SDS011;724;49.910;12.530;2024-03-02T14:39:09;15.20;;;14.40;;
1460;SDS011;724;49.910;12.530;2024-03-02T14:41:36;14.95;;;14.15;;
1460;SDS011;724;49.910;12.530;2024-03-02T14:44:02;15.13;;;14.32;;
1460;SDS011;724;49.910;12.530;2024-03-02T14:46:29;15.10;;;14.30;;
1460;SDS011;724;49.910;12.530;2024-03-02T14:48:57;15.00;;;14.20;;
1460;SDS011;724;49.910;12.530;2024-03-02T14:51:24;15.20;;;14.40;;
1460;SDS011;724;49.910;12.530;2024-03-02T14:53:52;15.40;;;14.60;;
1460;SDS011;724;49.910;12.530;2024-03-02T14:56:19;15.30;;;14.50;;
1460;SDS011;724;49.910;12.530;2024-03-02T14:58:46;15.20;;;14.40;;
1460;SDS011;724;49.910;12.530;2024-03-02T15:01:12;15.20;;;14.40;;